createdAt,value
2019-03-23T00:02:08.495Z,95.35
2019-03-23T00:04:37.280Z,94.75
2019-03-23T00:07:06.173Z,93.97
2019-03-23T00:09:34.955Z,93.33
2019-03-23T00:12:03.731Z,93.67
2019-03-23T00:14:32.534Z,94.90
2019-03-23T00:17:01.686Z,97.70
2019-03-23T00:19:30.519Z,94.10
2019-03-23T00:21:59.356Z,93.78
2019-03-23T00:24:28.139Z,92.12
2019-03-23T00:26:57.249Z,89.20
2019-03-23T00:29:26.148Z,90.38
2019-03-23T00:31:54.937Z,87.25
2019-03-23T00:34:23.727Z,89.85
2019-03-23T00:36:52.598Z,84.35
2019-03-23T00:39:21.806Z,85.35
2019-03-23T00:41:50.604Z,84.45
2019-03-23T00:44:19.476Z,86.20
2019-03-23T00:46:48.338Z,82.82
2019-03-23T00:49:17.180Z,82.75
2019-03-23T00:51:46.027Z,81.67
2019-03-23T00:54:15.167Z,80.57
2019-03-23T00:56:43.939Z,80.47
2019-03-23T00:59:12.747Z,78.42
2019-03-23T01:01:41.542Z,81.35
2019-03-23T01:04:10.395Z,77.27
2019-03-23T01:06:39.219Z,78.12
2019-03-23T01:09:08.299Z,80.28
2019-03-23T01:11:37.083Z,79.03
2019-03-23T01:14:05.902Z,77.60
2019-03-23T01:16:35.087Z,80.47
2019-03-23T01:19:03.862Z,76.45
2019-03-23T01:21:32.656Z,76.95
2019-03-23T01:24:01.448Z,78.42
2019-03-23T01:26:30.215Z,78.35
2019-03-23T01:28:59.349Z,77.03
2019-03-23T01:31:28.203Z,77.30
2019-03-23T01:33:56.993Z,77.92
2019-03-23T01:36:25.800Z,76.70
2019-03-23T01:38:54.576Z,76.20
2019-03-23T01:41:23.374Z,74.00
2019-03-23T01:43:52.168Z,76.22
2019-03-23T01:46:21.289Z,74.03
2019-03-23T01:48:50.483Z,73.45
2019-03-23T01:51:19.297Z,73.07
2019-03-23T01:53:48.086Z,71.37
2019-03-23T01:56:16.876Z,72.00
2019-03-23T01:58:45.679Z,72.08
2019-03-23T02:01:14.523Z,73.43
2019-03-23T02:03:43.315Z,71.67
2019-03-23T02:06:12.120Z,69.43
2019-03-23T02:08:41.210Z,66.75
2019-03-23T02:11:09.989Z,69.00
2019-03-23T02:13:38.808Z,68.83
2019-03-23T02:16:07.658Z,68.37
2019-03-23T02:18:36.450Z,68.28
2019-03-23T02:21:05.269Z,65.40
2019-03-23T02:23:34.051Z,68.30
2019-03-23T02:26:02.835Z,67.40
2019-03-23T02:28:31.709Z,69.55
2019-03-23T02:31:00.759Z,66.85
2019-03-23T02:33:29.931Z,66.37
2019-03-23T02:35:58.756Z,70.92
2019-03-23T02:38:27.560Z,67.47
2019-03-23T02:40:56.406Z,69.05
2019-03-23T02:43:25.235Z,70.60
2019-03-23T02:45:54.009Z,68.80
2019-03-23T02:48:22.806Z,71.57
2019-03-23T02:50:51.683Z,67.65
2019-03-23T02:53:20.487Z,71.92
2019-03-23T02:55:50.076Z,71.82
2019-03-23T02:58:18.955Z,74.60
2019-03-23T03:00:47.807Z,72.00
2019-03-23T03:03:16.597Z,72.47
2019-03-23T03:05:45.746Z,68.28
2019-03-23T03:08:14.527Z,72.78
2019-03-23T03:10:43.378Z,73.30
2019-03-23T03:13:12.184Z,72.85
2019-03-23T03:15:41.058Z,75.35
2019-03-23T03:18:09.930Z,76.02
2019-03-23T03:20:38.755Z,73.28
2019-03-23T03:23:07.552Z,71.28
2019-03-23T03:25:36.467Z,74.82
2019-03-23T03:28:05.288Z,74.82
2019-03-23T03:30:34.087Z,72.87
2019-03-23T03:33:02.877Z,73.57
2019-03-23T03:35:31.751Z,74.67
2019-03-23T03:38:00.820Z,77.22
2019-03-23T03:40:29.602Z,75.92
2019-03-23T03:42:58.790Z,76.53
2019-03-23T03:45:28.251Z,73.25
2019-03-23T03:47:57.080Z,75.32
2019-03-23T03:50:25.900Z,73.50
2019-03-23T03:52:54.733Z,73.83
2019-03-23T03:55:23.512Z,72.45
2019-03-23T03:57:52.320Z,72.62
2019-03-23T04:00:21.192Z,70.30
2019-03-23T04:02:49.968Z,72.60
2019-03-23T04:05:18.790Z,71.75
2019-03-23T04:07:47.650Z,73.28
2019-03-23T04:10:16.498Z,72.58
2019-03-23T04:12:45.314Z,73.37
2019-03-23T04:15:14.177Z,69.50
2019-03-23T04:17:42.971Z,65.72
2019-03-23T04:20:11.790Z,67.37
2019-03-23T04:22:40.892Z,63.58
2019-03-23T04:25:10.449Z,62.20
2019-03-23T04:27:39.367Z,66.22
2019-03-23T04:30:11.794Z,66.62
2019-03-23T04:32:40.594Z,65.67
2019-03-23T04:35:09.494Z,65.72
2019-03-23T04:37:38.293Z,65.05
2019-03-23T04:40:09.713Z,65.57
2019-03-23T04:42:38.534Z,63.68
2019-03-23T04:45:08.666Z,66.40
2019-03-23T04:47:37.608Z,65.75
2019-03-23T04:50:10.935Z,63.75
2019-03-23T04:52:39.775Z,66.70
2019-03-23T04:55:12.000Z,65.30
2019-03-23T04:57:40.818Z,66.92
2019-03-23T05:00:17.054Z,68.70
2019-03-23T05:02:45.869Z,67.37
2019-03-23T05:05:14.727Z,68.75
2019-03-23T05:07:43.505Z,67.92
2019-03-23T05:10:12.385Z,68.28
2019-03-23T05:12:41.161Z,70.08
2019-03-23T05:15:09.943Z,66.20
2019-03-23T05:17:38.744Z,66.97
2019-03-23T05:20:09.978Z,66.92
2019-03-23T05:22:38.773Z,66.22
2019-03-23T05:25:09.527Z,67.50
2019-03-23T05:27:38.318Z,69.17
2019-03-23T05:30:08.033Z,66.62
2019-03-23T05:32:37.193Z,67.80
2019-03-23T05:35:06.945Z,65.35
2019-03-23T05:37:35.721Z,66.25
2019-03-23T05:40:06.545Z,66.15
2019-03-23T05:42:35.771Z,66.82
2019-03-23T05:45:06.007Z,65.25
2019-03-23T05:47:34.806Z,69.58
2019-03-23T05:50:05.239Z,67.80
2019-03-23T05:52:34.036Z,66.70
2019-03-23T05:55:03.008Z,68.40
2019-03-23T05:57:31.793Z,65.75
2019-03-23T06:00:00.637Z,66.97
2019-03-23T06:02:29.439Z,68.37
2019-03-23T06:04:58.219Z,65.05
2019-03-23T06:07:27.012Z,65.37
2019-03-23T06:09:55.891Z,68.42
2019-03-23T06:12:24.738Z,68.60
2019-03-23T06:14:53.587Z,64.40
2019-03-23T06:17:22.405Z,64.37
2019-03-23T06:19:51.246Z,62.40
2019-03-23T06:22:20.024Z,64.90
2019-03-23T06:24:48.844Z,68.07
2019-03-23T06:27:17.638Z,66.25
2019-03-23T06:29:46.517Z,65.03
2019-03-23T06:32:15.317Z,64.03
2019-03-23T06:34:44.121Z,67.42
2019-03-23T06:37:12.940Z,67.90
2019-03-23T06:39:41.803Z,68.65
2019-03-23T06:42:10.667Z,66.53
2019-03-23T06:44:39.529Z,68.80
2019-03-23T06:47:08.359Z,66.82
2019-03-23T06:49:37.263Z,67.95
2019-03-23T06:52:06.084Z,67.80
2019-03-23T06:54:34.904Z,67.25
2019-03-23T06:57:03.761Z,68.35
2019-03-23T06:59:32.549Z,65.83
2019-03-23T07:02:01.365Z,65.97
2019-03-23T07:04:30.155Z,63.80
2019-03-23T07:06:59.023Z,63.13
2019-03-23T07:09:27.931Z,65.52
2019-03-23T07:11:56.756Z,64.47
2019-03-23T07:14:25.561Z,63.73
2019-03-23T07:16:54.665Z,63.30
2019-03-23T07:19:23.448Z,63.60
2019-03-23T07:21:52.576Z,63.87
2019-03-23T07:24:21.504Z,64.77
2019-03-23T07:26:50.273Z,65.75
2019-03-23T07:29:19.082Z,66.92
2019-03-23T07:31:47.963Z,65.28
2019-03-23T07:34:17.032Z,66.77
2019-03-23T07:36:45.880Z,66.30
2019-03-23T07:39:14.751Z,63.33
2019-03-23T07:41:43.536Z,65.10
2019-03-23T07:44:12.324Z,67.37
2019-03-23T07:46:41.146Z,66.10
2019-03-23T07:49:10.271Z,67.95
2019-03-23T07:51:39.051Z,67.75
2019-03-23T07:54:07.935Z,63.55
2019-03-23T07:56:37.057Z,63.92
2019-03-23T07:59:06.254Z,64.20
2019-03-23T08:01:35.350Z,63.05
2019-03-23T08:04:04.145Z,63.48
2019-03-23T08:06:32.933Z,64.65
2019-03-23T08:09:01.744Z,64.92
2019-03-23T08:11:30.538Z,64.47
2019-03-23T08:13:59.731Z,62.15
2019-03-23T08:16:28.621Z,62.25
2019-03-23T08:18:57.467Z,63.80
2019-03-23T08:21:26.318Z,61.53
2019-03-23T08:23:55.132Z,61.13
2019-03-23T08:26:23.989Z,62.03
2019-03-23T08:28:52.846Z,57.20
2019-03-23T08:31:21.736Z,57.70
2019-03-23T08:33:52.079Z,58.58
2019-03-23T08:36:21.192Z,58.08
2019-03-23T08:38:51.703Z,58.98
2019-03-23T08:41:20.721Z,59.70
2019-03-23T08:43:49.572Z,59.67
2019-03-23T08:46:18.398Z,61.83
2019-03-23T08:48:47.245Z,59.40
2019-03-23T08:51:16.367Z,59.08
2019-03-23T08:53:45.187Z,60.15
2019-03-23T08:56:13.971Z,61.63
2019-03-23T08:58:41.886Z,58.45
2019-03-23T09:01:10.731Z,59.60
2019-03-23T09:03:39.613Z,62.62
2019-03-23T09:06:08.466Z,59.55
2019-03-23T09:08:37.269Z,57.38
2019-03-23T09:11:06.705Z,57.78
2019-03-23T09:13:40.507Z,60.50
2019-03-23T09:16:06.524Z,59.00
2019-03-23T09:18:35.298Z,57.23
2019-03-23T09:21:04.088Z,59.05
2019-03-23T09:23:32.962Z,60.38
2019-03-23T09:26:01.757Z,58.78
2019-03-23T09:28:30.611Z,58.87
2019-03-23T09:30:59.407Z,59.48
2019-03-23T09:33:28.191Z,58.55
2019-03-23T09:35:56.976Z,57.65
2019-03-23T09:38:25.790Z,56.85
2019-03-23T09:40:54.564Z,59.58
2019-03-23T09:43:23.364Z,59.67
2019-03-23T09:45:52.178Z,60.73
2019-03-23T09:48:20.983Z,59.27
2019-03-23T09:50:49.762Z,57.98
2019-03-23T09:53:18.573Z,59.60
2019-03-23T09:55:47.358Z,58.42
2019-03-23T09:58:16.139Z,60.48
2019-03-23T10:00:44.948Z,60.20
2019-03-23T10:03:13.811Z,60.20
2019-03-23T10:05:42.603Z,60.25
2019-03-23T10:08:11.473Z,62.85
2019-03-23T10:10:40.256Z,60.33
2019-03-23T10:13:09.109Z,59.90
2019-03-23T10:15:37.909Z,57.88
2019-03-23T10:18:06.686Z,57.17
2019-03-23T10:20:35.497Z,55.55
2019-03-23T10:23:04.367Z,55.03
2019-03-23T10:25:33.496Z,54.75
2019-03-23T10:28:02.354Z,55.63
2019-03-23T10:30:31.231Z,58.50
2019-03-23T10:33:00.016Z,57.55
2019-03-23T10:35:28.808Z,55.33
2019-03-23T10:37:57.606Z,55.08
2019-03-23T10:40:32.325Z,55.50
2019-03-23T10:42:56.881Z,56.53
2019-03-23T10:45:25.755Z,57.30
2019-03-23T10:50:23.513Z,58.98
2019-03-23T10:52:52.380Z,57.43
2019-03-23T10:55:21.169Z,57.73
2019-03-23T10:57:50.223Z,61.02
2019-03-23T11:00:19.096Z,59.03
2019-03-23T11:02:47.881Z,59.80
2019-03-23T11:05:17.056Z,61.20
2019-03-23T11:07:45.893Z,61.92
2019-03-23T11:10:14.756Z,61.00
2019-03-23T11:12:43.575Z,130.72
2019-03-23T11:15:12.464Z,65.32
2019-03-23T11:17:41.329Z,86.82
2019-03-23T11:20:12.008Z,78.12
2019-03-23T11:22:40.820Z,61.05
2019-03-23T11:25:09.682Z,60.12
2019-03-23T11:27:38.472Z,61.63
2019-03-23T11:30:09.823Z,62.75
2019-03-23T11:32:38.670Z,63.15
2019-03-23T11:35:08.172Z,62.00
2019-03-23T11:37:37.215Z,62.75
2019-03-23T11:40:07.992Z,60.67
2019-03-23T11:42:36.785Z,61.55
2019-03-23T11:45:07.541Z,62.20
2019-03-23T11:47:36.320Z,61.42
2019-03-23T11:50:05.748Z,61.83
2019-03-23T11:52:34.575Z,62.65
2019-03-23T11:55:03.716Z,62.08
2019-03-23T11:57:32.508Z,62.55
2019-03-23T12:00:01.388Z,60.58
2019-03-23T12:02:30.256Z,60.40
2019-03-23T12:04:59.048Z,59.35
2019-03-23T12:07:27.835Z,60.20
2019-03-23T12:09:56.872Z,58.73
2019-03-23T12:12:25.660Z,58.98
2019-03-23T12:14:54.463Z,58.42
2019-03-23T12:17:23.231Z,59.53
2019-03-23T12:19:52.091Z,59.90
2019-03-23T12:22:20.978Z,58.38
2019-03-23T12:24:49.768Z,58.48
2019-03-23T12:27:18.603Z,60.12
2019-03-23T12:29:47.420Z,57.00
2019-03-23T12:32:16.199Z,58.90
2019-03-23T12:34:44.971Z,59.10
2019-03-23T12:37:13.789Z,59.03
2019-03-23T12:39:42.634Z,56.88
2019-03-23T12:42:11.410Z,58.52
2019-03-23T12:44:40.284Z,57.23
2019-03-23T12:47:09.074Z,56.63
2019-03-23T12:49:37.853Z,56.80
2019-03-23T12:52:06.654Z,58.80
2019-03-23T12:54:35.424Z,57.50
2019-03-23T12:57:04.193Z,56.45
2019-03-23T12:59:33.006Z,56.70
2019-03-23T13:02:01.784Z,57.85
2019-03-23T13:04:30.580Z,56.98
2019-03-23T13:06:59.741Z,55.05
2019-03-23T13:09:28.592Z,56.15
2019-03-23T13:11:57.361Z,56.33
2019-03-23T13:14:26.163Z,56.70
2019-03-23T13:16:55.027Z,56.37
2019-03-23T13:19:23.909Z,54.67
2019-03-23T13:21:52.719Z,55.50
2019-03-23T13:24:22.678Z,57.03
2019-03-23T13:26:51.597Z,57.70
2019-03-23T13:29:20.397Z,55.88
2019-03-23T13:31:49.178Z,54.58
2019-03-23T13:34:18.027Z,55.58
2019-03-23T13:36:46.845Z,55.48
2019-03-23T13:39:16.061Z,56.68
2019-03-23T13:41:48.058Z,56.15
2019-03-23T13:44:16.872Z,56.13
2019-03-23T13:46:45.656Z,55.00
2019-03-23T13:49:14.441Z,53.33
2019-03-23T13:51:43.326Z,54.27
2019-03-23T13:54:12.120Z,55.55
2019-03-23T13:56:41.172Z,54.58
2019-03-23T13:59:10.029Z,54.18
2019-03-23T14:01:38.859Z,53.23
2019-03-23T14:04:07.625Z,52.13
2019-03-23T14:06:36.446Z,54.42
2019-03-23T14:09:06.399Z,54.73
2019-03-23T14:11:35.190Z,54.03
2019-03-23T14:14:03.998Z,53.30
2019-03-23T14:16:32.849Z,53.40
2019-03-23T14:19:01.626Z,52.90
2019-03-23T14:21:30.436Z,54.48
2019-03-23T14:23:59.307Z,53.08
2019-03-23T14:26:28.089Z,52.75
2019-03-23T14:28:56.909Z,52.53
2019-03-23T14:31:25.817Z,53.53
2019-03-23T14:33:54.588Z,52.65
2019-03-23T14:36:23.763Z,52.13
2019-03-23T14:38:52.552Z,54.08
2019-03-23T14:41:21.390Z,53.50
2019-03-23T14:43:50.203Z,51.70
2019-03-23T14:46:19.062Z,51.83
2019-03-23T14:48:47.908Z,52.88
2019-03-23T14:51:16.797Z,50.57
2019-03-23T14:53:45.577Z,49.18
2019-03-23T14:56:14.415Z,50.03
2019-03-23T14:58:43.215Z,49.48
2019-03-23T15:01:11.993Z,49.90
2019-03-23T15:03:40.773Z,48.35
2019-03-23T15:06:09.592Z,48.52
2019-03-23T15:08:38.506Z,48.90
2019-03-23T15:11:07.363Z,49.77
2019-03-23T15:13:36.521Z,50.05
2019-03-23T15:16:05.296Z,50.23
2019-03-23T15:18:34.090Z,50.98
2019-03-23T15:21:02.965Z,50.58
2019-03-23T15:23:31.741Z,50.80
2019-03-23T15:26:00.532Z,48.73
2019-03-23T15:28:29.410Z,50.88
2019-03-23T15:30:59.060Z,51.80
2019-03-23T15:33:27.878Z,51.68
2019-03-23T15:35:56.680Z,49.95
2019-03-23T15:38:25.506Z,51.30
2019-03-23T15:40:54.372Z,50.50
2019-03-23T15:43:23.253Z,52.38
2019-03-23T15:45:52.044Z,50.25
2019-03-23T15:48:20.818Z,49.95
2019-03-23T15:50:49.716Z,52.05
2019-03-23T15:53:18.844Z,49.95
2019-03-23T15:55:47.994Z,52.40
2019-03-23T15:58:16.817Z,49.42
2019-03-23T16:00:45.673Z,52.13
2019-03-23T16:03:14.455Z,51.88
2019-03-23T16:05:43.272Z,52.78
2019-03-23T16:08:12.044Z,53.15
2019-03-23T16:10:40.850Z,52.83
2019-03-23T16:13:09.770Z,52.43
2019-03-23T16:15:38.628Z,54.63
2019-03-23T16:18:07.488Z,52.60
2019-03-23T16:20:36.302Z,54.23
2019-03-23T16:23:05.096Z,55.55
2019-03-23T16:25:33.878Z,55.52
2019-03-23T16:28:02.687Z,56.45
2019-03-23T16:30:32.336Z,54.85
2019-03-23T16:33:01.110Z,52.85
2019-03-23T16:35:29.918Z,54.25
2019-03-23T16:37:58.698Z,53.20
2019-03-23T16:40:27.547Z,49.77
2019-03-23T16:42:56.637Z,49.10
2019-03-23T16:45:25.427Z,48.98
2019-03-23T16:47:54.191Z,52.30
2019-03-23T16:50:22.993Z,49.27
2019-03-23T16:52:51.845Z,51.40
2019-03-23T16:55:20.614Z,49.60
2019-03-23T16:57:49.470Z,48.87
2019-03-23T17:00:21.560Z,48.58
2019-03-23T17:02:50.420Z,47.35
2019-03-23T17:05:19.305Z,45.00
2019-03-23T17:07:48.103Z,45.30
2019-03-23T17:10:16.945Z,45.48
2019-03-23T17:12:55.090Z,44.80
2019-03-23T17:15:16.234Z,45.23
2019-03-23T17:17:45.028Z,42.90
2019-03-23T17:20:13.826Z,42.78
2019-03-23T17:22:43.027Z,41.65
2019-03-23T17:25:11.805Z,41.68
2019-03-23T17:27:40.608Z,41.23
2019-03-23T17:30:09.377Z,41.13
2019-03-23T17:32:38.730Z,40.60
2019-03-23T17:35:07.619Z,40.33
2019-03-23T17:37:36.463Z,39.75
2019-03-23T17:40:06.963Z,39.78
2019-03-23T17:42:35.801Z,40.35
2019-03-23T17:45:07.148Z,40.20
2019-03-23T17:47:35.952Z,39.38
2019-03-23T17:50:05.412Z,38.30
2019-03-23T17:52:34.206Z,39.67
2019-03-23T17:55:03.457Z,39.18
2019-03-23T17:57:32.276Z,40.85
2019-03-23T18:00:01.152Z,39.88
2019-03-23T18:02:30.311Z,39.13
2019-03-23T18:04:59.126Z,39.50
2019-03-23T18:07:27.915Z,39.20
2019-03-23T18:09:56.779Z,38.92
2019-03-23T18:12:25.576Z,38.28
2019-03-23T18:14:54.358Z,37.95
2019-03-23T18:17:23.140Z,40.23
2019-03-23T18:19:52.008Z,40.17
2019-03-23T18:22:20.791Z,41.00
2019-03-23T18:24:57.153Z,40.83
2019-03-23T18:27:25.235Z,40.70
2019-03-23T18:29:54.001Z,36.55
2019-03-23T18:32:22.795Z,36.05
2019-03-23T18:34:51.665Z,34.58
2019-03-23T18:37:20.459Z,33.40
2019-03-23T18:39:49.301Z,33.53
2019-03-23T18:42:18.426Z,32.25
2019-03-23T18:44:47.248Z,31.07
2019-03-23T18:47:16.106Z,31.50
2019-03-23T18:49:44.918Z,30.77
2019-03-23T18:52:13.690Z,32.38
2019-03-23T18:54:42.498Z,30.00
2019-03-23T18:57:11.308Z,29.35
2019-03-23T18:59:40.101Z,29.90
2019-03-23T19:02:08.877Z,29.35
2019-03-23T19:04:37.693Z,30.68
2019-03-23T19:07:06.529Z,30.17
2019-03-23T19:09:35.318Z,30.75
2019-03-23T19:12:04.210Z,30.88
2019-03-23T19:14:32.992Z,30.27
2019-03-23T19:17:01.775Z,30.65
2019-03-23T19:19:30.654Z,30.88
2019-03-23T19:21:59.429Z,31.97
2019-03-23T19:24:28.211Z,29.75
2019-03-23T19:26:57.040Z,30.50
2019-03-23T19:29:27.644Z,31.33
2019-03-23T19:31:56.285Z,31.95
2019-03-23T19:34:25.080Z,31.07
2019-03-23T19:36:53.856Z,30.77
2019-03-23T19:39:22.646Z,31.42
2019-03-23T19:41:51.455Z,31.48
2019-03-23T19:44:20.309Z,30.57
2019-03-23T19:46:49.092Z,31.27
2019-03-23T19:49:17.982Z,33.73
2019-03-23T19:51:46.781Z,32.65
2019-03-23T19:54:15.901Z,31.80
2019-03-23T19:56:44.805Z,33.67
2019-03-23T19:59:13.653Z,32.42
2019-03-23T20:01:42.449Z,32.88
2019-03-23T20:04:11.254Z,32.42
2019-03-23T20:06:40.041Z,33.18
2019-03-23T20:09:09.758Z,30.57
2019-03-23T20:11:38.861Z,29.57
2019-03-23T20:14:08.155Z,28.23
2019-03-23T20:16:36.931Z,28.38
2019-03-23T20:19:05.830Z,27.73
2019-03-23T20:21:34.691Z,27.50
2019-03-23T20:24:03.825Z,26.15
2019-03-23T20:26:32.634Z,16.90
2019-03-23T20:29:01.473Z,17.87
2019-03-23T20:31:30.252Z,14.75
2019-03-23T20:33:59.166Z,14.98
2019-03-23T20:36:28.044Z,15.20
2019-03-23T20:38:56.904Z,14.10
2019-03-23T20:41:25.715Z,13.80
2019-03-23T20:43:54.504Z,10.25
2019-03-23T20:46:23.270Z,8.65
2019-03-23T20:48:52.450Z,7.62
2019-03-23T20:51:21.252Z,7.37
2019-03-23T20:53:50.017Z,7.03
2019-03-23T20:56:18.833Z,6.83
2019-03-23T20:58:47.675Z,6.95
2019-03-23T21:01:16.461Z,7.10
2019-03-23T21:03:45.348Z,6.67
2019-03-23T21:06:14.176Z,6.07
2019-03-23T21:08:42.995Z,5.92
2019-03-23T21:11:11.800Z,6.37
2019-03-23T21:13:40.650Z,5.90
2019-03-23T21:16:09.424Z,6.10
2019-03-23T21:18:38.241Z,6.17
2019-03-23T21:21:07.016Z,5.67
2019-03-23T21:23:36.217Z,5.78
2019-03-23T21:26:05.054Z,5.60
2019-03-23T21:28:34.198Z,5.65
2019-03-23T21:31:02.979Z,5.40
2019-03-23T21:33:33.512Z,6.05
2019-03-23T21:36:02.346Z,5.80
2019-03-23T21:38:31.221Z,6.03
2019-03-23T21:41:00.458Z,5.75
2019-03-23T21:43:29.233Z,5.00
2019-03-23T21:45:58.071Z,5.50
2019-03-23T21:48:26.876Z,5.70
2019-03-23T21:50:55.683Z,6.08
2019-03-23T21:53:24.533Z,6.28
2019-03-23T21:55:53.363Z,6.25
2019-03-23T21:58:22.218Z,5.78
2019-03-23T22:00:50.993Z,5.92
2019-03-23T22:03:19.801Z,5.97
2019-03-23T22:05:48.581Z,5.80
2019-03-23T22:08:17.438Z,5.33
2019-03-23T22:10:46.319Z,5.47
2019-03-23T22:13:15.120Z,5.78
2019-03-23T22:15:43.994Z,5.45
2019-03-23T22:18:12.875Z,5.33
2019-03-23T22:20:41.668Z,4.65
2019-03-23T22:23:10.522Z,5.15
2019-03-23T22:25:39.337Z,5.30
2019-03-23T22:28:08.446Z,4.95
2019-03-23T22:30:37.242Z,4.85
2019-03-23T22:33:06.048Z,5.25
2019-03-23T22:35:34.887Z,4.62
2019-03-23T22:38:03.665Z,4.80
2019-03-23T22:40:32.492Z,5.00
2019-03-23T22:43:01.278Z,5.53
2019-03-23T22:45:30.053Z,4.95
2019-03-23T22:47:58.868Z,4.50
2019-03-23T22:50:27.734Z,4.90
2019-03-23T22:52:56.519Z,4.97
2019-03-23T22:55:25.653Z,4.85
2019-03-23T22:57:54.756Z,4.92
2019-03-23T23:00:28.274Z,4.45
2019-03-23T23:02:57.076Z,4.78
2019-03-23T23:05:26.237Z,4.35
2019-03-23T23:07:55.023Z,4.40
2019-03-23T23:10:23.823Z,4.65
2019-03-23T23:12:52.606Z,4.80
2019-03-23T23:15:21.475Z,4.42
2019-03-23T23:17:50.585Z,4.70
2019-03-23T23:20:19.361Z,4.87
2019-03-23T23:22:48.145Z,4.67
2019-03-23T23:25:17.015Z,4.83
2019-03-23T23:27:45.868Z,4.85
2019-03-23T23:30:14.698Z,4.55
2019-03-23T23:32:43.512Z,4.60
2019-03-23T23:35:12.288Z,4.78
2019-03-23T23:37:41.059Z,5.12
2019-03-23T23:40:09.947Z,4.70
2019-03-23T23:42:38.797Z,4.95
2019-03-23T23:45:15.384Z,4.45
2019-03-23T23:47:38.415Z,4.85
2019-03-23T23:50:07.349Z,4.67
2019-03-23T23:52:36.119Z,5.28
2019-03-23T23:55:06.133Z,4.12
2019-03-23T23:57:34.899Z,4.75
